Raymond, Canada
Current Conditions -  °F | °C
As of 4:00 PM on Wednesday 22 Oct 2014 (Local Time) from CYQL Reporting Station
Scattered Clouds Scattered Clouds  
Wind Chill: 63°   Ceiling: Unl
Heat Index: 63°   Visibility: 40mi
Dew Point: 32°   Wind: 18mph
Humidity: 32%   Direction: 240°WSW
Pressure: 29.74"   Gusts: 24mph
Location:  49.47°N, 112.66°W
Report Text: CYQL 222200Z 24016G21KT 40SM FEW070 SCT250 17/00 A2974 RMK AC1CI2 SLP075 DENSITY ALT 4100FT
Loading
Personal Weather Stations






























Interactive Weather Map
Tropical Storm Tracking
New forecast layout! Learn more

10-Day Weather Forecast

Advertisements
Track Severe Weather on mobile